sensor_id;sensor_type;location;lat;lon;timestamp;temperature;humidity
8313;DHT22;4194;43.408;24.626;2024-03-08T00:01:15;5.10;99.90
8313;DHT22;4194;43.408;24.626;2024-03-08T00:03:42;6.10;99.90
8313;DHT22;4194;43.408;24.626;2024-03-08T00:06:08;5.00;99.90
8313;DHT22;4194;43.408;24.626;2024-03-08T00:08:33;5.10;99.90
8313;DHT22;4194;43.408;24.626;2024-03-08T00:10:59;7.30;99.90
8313;DHT22;4194;43.408;24.626;2024-03-08T00:13:25;5.10;99.90
8313;DHT22;4194;43.408;24.626;2024-03-08T00:15:51;5.00;99.90
8313;DHT22;4194;43.408;24.626;2024-03-08T00:18:17;4.70;99.90
8313;DHT22;4194;43.408;24.626;2024-03-08T00:20:43;4.70;99.90
8313;DHT22;4194;43.408;24.626;2024-03-08T00:23:10;4.80;99.90
8313;DHT22;4194;43.408;24.626;2024-03-08T00:25:36;4.70;99.90
8313;DHT22;4194;43.408;24.626;2024-03-08T00:28:02;5.50;99.90
8313;DHT22;4194;43.408;24.626;2024-03-08T00:30:30;4.00;99.90
8313;DHT22;4194;43.408;24.626;2024-03-08T00:32:56;5.20;99.90
8313;DHT22;4194;43.408;24.626;2024-03-08T00:35:22;3.60;99.90
8313;DHT22;4194;43.408;24.626;2024-03-08T00:37:48;4.90;99.90
8313;DHT22;4194;43.408;24.626;2024-03-08T00:42:40;4.30;99.90
8313;DHT22;4194;43.408;24.626;2024-03-08T00:45:07;4.40;99.90
8313;DHT22;4194;43.408;24.626;2024-03-08T00:47:33;5.00;99.90
8313;DHT22;4194;43.408;24.626;2024-03-08T00:49:58;4.50;99.90
8313;DHT22;4194;43.408;24.626;2024-03-08T00:52:24;4.70;99.90
8313;DHT22;4194;43.408;24.626;2024-03-08T00:54:50;4.50;99.90
8313;DHT22;4194;43.408;24.626;2024-03-08T00:57:16;4.50;99.90
8313;DHT22;4194;43.408;24.626;2024-03-08T00:59:41;4.50;99.90
8313;DHT22;4194;43.408;24.626;2024-03-08T01:02:07;5.00;99.90
8313;DHT22;4194;43.408;24.626;2024-03-08T01:04:34;4.80;99.90
8313;DHT22;4194;43.408;24.626;2024-03-08T01:07:00;4.40;99.90
8313;DHT22;4194;43.408;24.626;2024-03-08T01:09:27;4.50;99.90
8313;DHT22;4194;43.408;24.626;2024-03-08T01:11:54;4.50;99.90
8313;DHT22;4194;43.408;24.626;2024-03-08T01:14:21;5.00;99.90
8313;DHT22;4194;43.408;24.626;2024-03-08T01:16:55;4.20;99.90
8313;DHT22;4194;43.408;24.626;2024-03-08T01:19:21;4.20;99.90
8313;DHT22;4194;43.408;24.626;2024-03-08T01:21:46;4.40;99.90
8313;DHT22;4194;43.408;24.626;2024-03-08T01:24:12;4.00;99.90
8313;DHT22;4194;43.408;24.626;2024-03-08T01:26:38;4.60;99.90
8313;DHT22;4194;43.408;24.626;2024-03-08T01:29:04;4.90;99.90
8313;DHT22;4194;43.408;24.626;2024-03-08T01:31:30;4.60;99.90
8313;DHT22;4194;43.408;24.626;2024-03-08T01:33:57;4.20;99.90
8313;DHT22;4194;43.408;24.626;2024-03-08T01:36:23;4.80;99.90
8313;DHT22;4194;43.408;24.626;2024-03-08T01:38:50;4.10;99.90
8313;DHT22;4194;43.408;24.626;2024-03-08T01:41:16;4.20;99.90
8313;DHT22;4194;43.408;24.626;2024-03-08T01:43:43;4.50;99.90
8313;DHT22;4194;43.408;24.626;2024-03-08T01:46:09;4.20;99.90
8313;DHT22;4194;43.408;24.626;2024-03-08T01:48:38;3.90;99.90
8313;DHT22;4194;43.408;24.626;2024-03-08T01:51:05;4.00;99.90
8313;DHT22;4194;43.408;24.626;2024-03-08T01:53:31;4.90;99.90
8313;DHT22;4194;43.408;24.626;2024-03-08T01:55:58;4.30;99.90
8313;DHT22;4194;43.408;24.626;2024-03-08T01:58:26;4.50;99.90
8313;DHT22;4194;43.408;24.626;2024-03-08T02:00:54;4.10;99.90
8313;DHT22;4194;43.408;24.626;2024-03-08T02:03:20;4.10;99.90
8313;DHT22;4194;43.408;24.626;2024-03-08T02:05:46;4.20;99.90
8313;DHT22;4194;43.408;24.626;2024-03-08T02:08:12;4.20;99.90
8313;DHT22;4194;43.408;24.626;2024-03-08T02:10:40;4.10;99.90
8313;DHT22;4194;43.408;24.626;2024-03-08T02:15:52;3.40;99.90
8313;DHT22;4194;43.408;24.626;2024-03-08T02:18:18;4.30;99.90
8313;DHT22;4194;43.408;24.626;2024-03-08T02:20:54;4.10;99.90
8313;DHT22;4194;43.408;24.626;2024-03-08T02:23:21;4.10;99.90
8313;DHT22;4194;43.408;24.626;2024-03-08T02:25:47;3.50;99.90
8313;DHT22;4194;43.408;24.626;2024-03-08T02:28:14;4.10;99.90
8313;DHT22;4194;43.408;24.626;2024-03-08T02:30:40;3.70;99.90
8313;DHT22;4194;43.408;24.626;2024-03-08T02:33:06;3.50;99.90
8313;DHT22;4194;43.408;24.626;2024-03-08T02:35:33;4.90;99.90
8313;DHT22;4194;43.408;24.626;2024-03-08T02:37:59;4.20;99.90
8313;DHT22;4194;43.408;24.626;2024-03-08T02:40:25;5.10;99.90
8313;DHT22;4194;43.408;24.626;2024-03-08T02:42:51;4.30;99.90
8313;DHT22;4194;43.408;24.626;2024-03-08T02:45:18;3.60;99.90
8313;DHT22;4194;43.408;24.626;2024-03-08T02:47:44;2.50;99.90
8313;DHT22;4194;43.408;24.626;2024-03-08T02:50:10;2.70;99.90
8313;DHT22;4194;43.408;24.626;2024-03-08T02:52:35;4.30;99.90
8313;DHT22;4194;43.408;24.626;2024-03-08T02:55:02;4.30;99.90
8313;DHT22;4194;43.408;24.626;2024-03-08T02:57:28;4.10;99.90
8313;DHT22;4194;43.408;24.626;2024-03-08T02:59:54;4.80;99.90
8313;DHT22;4194;43.408;24.626;2024-03-08T03:02:19;4.00;99.90
8313;DHT22;4194;43.408;24.626;2024-03-08T03:04:45;4.40;99.90
8313;DHT22;4194;43.408;24.626;2024-03-08T03:07:11;3.20;99.90
8313;DHT22;4194;43.408;24.626;2024-03-08T03:09:37;4.10;99.90
8313;DHT22;4194;43.408;24.626;2024-03-08T03:14:28;4.00;99.90
8313;DHT22;4194;43.408;24.626;2024-03-08T03:16:54;3.90;99.90
8313;DHT22;4194;43.408;24.626;2024-03-08T03:19:20;4.80;99.90
8313;DHT22;4194;43.408;24.626;2024-03-08T03:21:46;4.00;99.90
8313;DHT22;4194;43.408;24.626;2024-03-08T03:24:12;5.30;99.90
8313;DHT22;4194;43.408;24.626;2024-03-08T03:26:41;4.20;99.90
8313;DHT22;4194;43.408;24.626;2024-03-08T03:29:09;3.60;99.90
8313;DHT22;4194;43.408;24.626;2024-03-08T03:31:36;5.30;99.90
8313;DHT22;4194;43.408;24.626;2024-03-08T03:34:02;4.20;99.90
8313;DHT22;4194;43.408;24.626;2024-03-08T03:36:29;4.70;99.90
8313;DHT22;4194;43.408;24.626;2024-03-08T03:38:55;3.60;99.90
8313;DHT22;4194;43.408;24.626;2024-03-08T03:41:38;3.80;99.90
8313;DHT22;4194;43.408;24.626;2024-03-08T03:46:32;3.50;99.90
8313;DHT22;4194;43.408;24.626;2024-03-08T03:48:58;4.10;99.90
8313;DHT22;4194;43.408;24.626;2024-03-08T03:51:24;3.80;99.90
8313;DHT22;4194;43.408;24.626;2024-03-08T03:53:50;3.10;99.90
8313;DHT22;4194;43.408;24.626;2024-03-08T03:56:15;4.40;99.90
8313;DHT22;4194;43.408;24.626;2024-03-08T03:58:41;3.70;99.90
8313;DHT22;4194;43.408;24.626;2024-03-08T04:01:08;4.50;99.90
8313;DHT22;4194;43.408;24.626;2024-03-08T04:03:35;4.60;99.90
8313;DHT22;4194;43.408;24.626;2024-03-08T04:06:01;3.60;99.90
8313;DHT22;4194;43.408;24.626;2024-03-08T04:08:27;3.10;99.90
8313;DHT22;4194;43.408;24.626;2024-03-08T04:10:53;3.80;99.90
8313;DHT22;4194;43.408;24.626;2024-03-08T04:13:19;4.20;99.90
8313;DHT22;4194;43.408;24.626;2024-03-08T04:15:46;3.80;99.90
8313;DHT22;4194;43.408;24.626;2024-03-08T04:18:13;4.60;99.90
8313;DHT22;4194;43.408;24.626;2024-03-08T04:20:39;4.00;99.90
8313;DHT22;4194;43.408;24.626;2024-03-08T04:23:06;3.90;99.90
8313;DHT22;4194;43.408;24.626;2024-03-08T04:25:32;4.70;99.90
8313;DHT22;4194;43.408;24.626;2024-03-08T04:27:57;3.80;99.90
8313;DHT22;4194;43.408;24.626;2024-03-08T04:30:23;3.30;99.90
8313;DHT22;4194;43.408;24.626;2024-03-08T04:32:49;4.10;99.90
8313;DHT22;4194;43.408;24.626;2024-03-08T04:35:15;3.60;99.90
8313;DHT22;4194;43.408;24.626;2024-03-08T04:37:41;4.00;99.90
8313;DHT22;4194;43.408;24.626;2024-03-08T04:40:07;4.30;99.90
8313;DHT22;4194;43.408;24.626;2024-03-08T04:42:33;5.10;99.90
8313;DHT22;4194;43.408;24.626;2024-03-08T04:45:01;4.10;99.90
8313;DHT22;4194;43.408;24.626;2024-03-08T04:47:27;4.40;99.90
8313;DHT22;4194;43.408;24.626;2024-03-08T04:49:53;3.90;99.90
8313;DHT22;4194;43.408;24.626;2024-03-08T04:52:20;4.00;99.90
8313;DHT22;4194;43.408;24.626;2024-03-08T04:54:47;4.20;99.90
8313;DHT22;4194;43.408;24.626;2024-03-08T04:57:13;3.90;99.90
8313;DHT22;4194;43.408;24.626;2024-03-08T04:59:38;3.60;99.90
8313;DHT22;4194;43.408;24.626;2024-03-08T05:02:04;4.40;99.90
8313;DHT22;4194;43.408;24.626;2024-03-08T05:04:30;4.10;99.90
8313;DHT22;4194;43.408;24.626;2024-03-08T05:06:55;4.20;99.90
8313;DHT22;4194;43.408;24.626;2024-03-08T05:09:21;4.90;99.90
8313;DHT22;4194;43.408;24.626;2024-03-08T05:11:48;4.00;99.90
8313;DHT22;4194;43.408;24.626;2024-03-08T05:14:14;4.10;99.90
8313;DHT22;4194;43.408;24.626;2024-03-08T05:16:45;3.70;99.90
8313;DHT22;4194;43.408;24.626;2024-03-08T05:19:15;3.70;99.90
8313;DHT22;4194;43.408;24.626;2024-03-08T05:21:43;4.20;99.90
8313;DHT22;4194;43.408;24.626;2024-03-08T05:24:09;3.30;99.90
8313;DHT22;4194;43.408;24.626;2024-03-08T05:26:36;4.30;99.90
8313;DHT22;4194;43.408;24.626;2024-03-08T05:29:03;5.90;99.90
8313;DHT22;4194;43.408;24.626;2024-03-08T05:31:29;3.90;99.90
8313;DHT22;4194;43.408;24.626;2024-03-08T05:33:56;4.80;99.90
8313;DHT22;4194;43.408;24.626;2024-03-08T05:36:22;4.30;99.90
8313;DHT22;4194;43.408;24.626;2024-03-08T05:38:48;4.90;99.90
8313;DHT22;4194;43.408;24.626;2024-03-08T05:41:16;4.80;99.90
8313;DHT22;4194;43.408;24.626;2024-03-08T05:43:42;4.30;99.90
8313;DHT22;4194;43.408;24.626;2024-03-08T05:46:09;5.00;99.90
8313;DHT22;4194;43.408;24.626;2024-03-08T05:48:37;4.30;99.90
8313;DHT22;4194;43.408;24.626;2024-03-08T05:51:03;4.90;99.90
8313;DHT22;4194;43.408;24.626;2024-03-08T05:53:29;4.30;99.90
8313;DHT22;4194;43.408;24.626;2024-03-08T05:55:58;6.10;99.90
8313;DHT22;4194;43.408;24.626;2024-03-08T05:58:24;3.80;99.90
8313;DHT22;4194;43.408;24.626;2024-03-08T06:00:50;4.10;99.90
8313;DHT22;4194;43.408;24.626;2024-03-08T06:03:16;6.10;99.90
8313;DHT22;4194;43.408;24.626;2024-03-08T06:05:41;4.80;99.90
8313;DHT22;4194;43.408;24.626;2024-03-08T06:08:07;4.20;99.90
8313;DHT22;4194;43.408;24.626;2024-03-08T06:10:33;5.00;99.90
8313;DHT22;4194;43.408;24.626;2024-03-08T06:12:59;4.30;99.90
8313;DHT22;4194;43.408;24.626;2024-03-08T06:15:26;4.80;99.90
8313;DHT22;4194;43.408;24.626;2024-03-08T06:17:52;4.20;99.90
8313;DHT22;4194;43.408;24.626;2024-03-08T06:20:18;4.40;99.90
8313;DHT22;4194;43.408;24.626;2024-03-08T06:22:44;4.30;99.90
8313;DHT22;4194;43.408;24.626;2024-03-08T06:25:11;4.20;99.90
8313;DHT22;4194;43.408;24.626;2024-03-08T06:27:41;4.10;99.90
8313;DHT22;4194;43.408;24.626;2024-03-08T06:30:08;4.10;99.90
8313;DHT22;4194;43.408;24.626;2024-03-08T06:32:35;4.00;99.90
8313;DHT22;4194;43.408;24.626;2024-03-08T06:35:10;4.00;99.90
8313;DHT22;4194;43.408;24.626;2024-03-08T06:37:36;4.30;99.90
8313;DHT22;4194;43.408;24.626;2024-03-08T06:40:02;4.70;99.90
8313;DHT22;4194;43.408;24.626;2024-03-08T06:42:28;4.40;99.90
8313;DHT22;4194;43.408;24.626;2024-03-08T06:44:55;3.90;99.90
8313;DHT22;4194;43.408;24.626;2024-03-08T06:47:25;3.80;99.90
8313;DHT22;4194;43.408;24.626;2024-03-08T06:49:51;4.00;99.90
8313;DHT22;4194;43.408;24.626;2024-03-08T06:52:17;4.30;99.90
8313;DHT22;4194;43.408;24.626;2024-03-08T06:54:43;4.90;99.90
8313;DHT22;4194;43.408;24.626;2024-03-08T06:57:09;4.50;99.90
8313;DHT22;4194;43.408;24.626;2024-03-08T06:59:36;4.70;99.90
8313;DHT22;4194;43.408;24.626;2024-03-08T07:02:02;4.20;99.90
8313;DHT22;4194;43.408;24.626;2024-03-08T07:04:29;4.60;99.90
8313;DHT22;4194;43.408;24.626;2024-03-08T07:06:58;5.80;99.90
8313;DHT22;4194;43.408;24.626;2024-03-08T07:09:24;4.80;99.90
8313;DHT22;4194;43.408;24.626;2024-03-08T07:11:50;4.40;99.90
8313;DHT22;4194;43.408;24.626;2024-03-08T07:14:21;5.00;99.90
8313;DHT22;4194;43.408;24.626;2024-03-08T07:16:47;4.70;99.90
8313;DHT22;4194;43.408;24.626;2024-03-08T07:19:13;5.80;99.90
8313;DHT22;4194;43.408;24.626;2024-03-08T07:21:39;4.90;99.90
8313;DHT22;4194;43.408;24.626;2024-03-08T07:24:05;4.70;99.90
8313;DHT22;4194;43.408;24.626;2024-03-08T07:26:50;4.80;99.90
8313;DHT22;4194;43.408;24.626;2024-03-08T07:29:17;5.20;99.90
8313;DHT22;4194;43.408;24.626;2024-03-08T07:31:43;5.80;99.90
8313;DHT22;4194;43.408;24.626;2024-03-08T07:34:27;5.00;99.90
8313;DHT22;4194;43.408;24.626;2024-03-08T07:36:53;6.00;99.90
8313;DHT22;4194;43.408;24.626;2024-03-08T07:39:18;4.50;99.90
8313;DHT22;4194;43.408;24.626;2024-03-08T07:41:44;4.10;99.90
8313;DHT22;4194;43.408;24.626;2024-03-08T07:44:10;4.80;99.90
8313;DHT22;4194;43.408;24.626;2024-03-08T07:46:35;4.00;99.90
8313;DHT22;4194;43.408;24.626;2024-03-08T07:49:02;3.30;99.90
8313;DHT22;4194;43.408;24.626;2024-03-08T07:51:28;4.70;99.90
8313;DHT22;4194;43.408;24.626;2024-03-08T07:53:54;4.40;99.90
8313;DHT22;4194;43.408;24.626;2024-03-08T07:58:47;4.60;99.90
8313;DHT22;4194;43.408;24.626;2024-03-08T08:01:17;3.80;99.90
8313;DHT22;4194;43.408;24.626;2024-03-08T08:03:43;4.50;99.90
8313;DHT22;4194;43.408;24.626;2024-03-08T08:06:09;4.60;99.90
8313;DHT22;4194;43.408;24.626;2024-03-08T08:08:35;4.50;99.90
8313;DHT22;4194;43.408;24.626;2024-03-08T08:11:02;4.70;99.90
8313;DHT22;4194;43.408;24.626;2024-03-08T08:13:28;5.10;99.90
8313;DHT22;4194;43.408;24.626;2024-03-08T08:15:57;4.80;99.90
8313;DHT22;4194;43.408;24.626;2024-03-08T08:18:23;4.80;99.90
8313;DHT22;4194;43.408;24.626;2024-03-08T08:20:51;5.00;99.90
8313;DHT22;4194;43.408;24.626;2024-03-08T08:23:18;4.90;99.90
8313;DHT22;4194;43.408;24.626;2024-03-08T08:25:45;5.00;99.90
8313;DHT22;4194;43.408;24.626;2024-03-08T08:28:11;5.10;99.90
8313;DHT22;4194;43.408;24.626;2024-03-08T08:30:38;6.00;99.90
8313;DHT22;4194;43.408;24.626;2024-03-08T08:33:04;5.40;99.90
8313;DHT22;4194;43.408;24.626;2024-03-08T08:35:31;5.10;99.90
8313;DHT22;4194;43.408;24.626;2024-03-08T08:37:58;5.10;99.90
8313;DHT22;4194;43.408;24.626;2024-03-08T08:40:24;4.90;99.90
8313;DHT22;4194;43.408;24.626;2024-03-08T08:42:51;5.90;99.90
8313;DHT22;4194;43.408;24.626;2024-03-08T08:45:18;4.90;99.90
8313;DHT22;4194;43.408;24.626;2024-03-08T08:47:44;4.90;99.90
8313;DHT22;4194;43.408;24.626;2024-03-08T08:50:11;5.10;99.90
8313;DHT22;4194;43.408;24.626;2024-03-08T08:52:38;5.00;99.90
8313;DHT22;4194;43.408;24.626;2024-03-08T08:55:04;5.10;99.90
8313;DHT22;4194;43.408;24.626;2024-03-08T08:57:32;4.60;99.90
8313;DHT22;4194;43.408;24.626;2024-03-08T08:59:59;5.40;99.90
8313;DHT22;4194;43.408;24.626;2024-03-08T09:02:26;6.80;99.90
8313;DHT22;4194;43.408;24.626;2024-03-08T09:04:52;5.20;99.90
8313;DHT22;4194;43.408;24.626;2024-03-08T09:07:17;6.00;99.90
8313;DHT22;4194;43.408;24.626;2024-03-08T09:09:44;5.30;99.90
8313;DHT22;4194;43.408;24.626;2024-03-08T09:12:11;7.80;99.90
8313;DHT22;4194;43.408;24.626;2024-03-08T09:14:40;5.20;99.90
8313;DHT22;4194;43.408;24.626;2024-03-08T09:17:06;5.70;99.90
8313;DHT22;4194;43.408;24.626;2024-03-08T09:19:34;5.70;99.90
8313;DHT22;4194;43.408;24.626;2024-03-08T09:22:00;4.90;99.90
8313;DHT22;4194;43.408;24.626;2024-03-08T09:24:25;4.10;99.90
8313;DHT22;4194;43.408;24.626;2024-03-08T09:26:51;5.40;99.90
8313;DHT22;4194;43.408;24.626;2024-03-08T09:29:17;5.40;99.90
8313;DHT22;4194;43.408;24.626;2024-03-08T09:31:43;5.30;99.90
8313;DHT22;4194;43.408;24.626;2024-03-08T09:34:11;4.60;99.90
8313;DHT22;4194;43.408;24.626;2024-03-08T09:36:37;5.70;99.90
8313;DHT22;4194;43.408;24.626;2024-03-08T09:39:03;5.30;99.90
8313;DHT22;4194;43.408;24.626;2024-03-08T09:41:29;5.30;99.90
8313;DHT22;4194;43.408;24.626;2024-03-08T09:43:56;4.70;99.90
8313;DHT22;4194;43.408;24.626;2024-03-08T09:46:25;5.30;99.90
8313;DHT22;4194;43.408;24.626;2024-03-08T09:48:53;5.30;99.90
8313;DHT22;4194;43.408;24.626;2024-03-08T09:51:22;5.30;99.90
8313;DHT22;4194;43.408;24.626;2024-03-08T09:53:52;5.50;99.90
8313;DHT22;4194;43.408;24.626;2024-03-08T09:56:19;5.70;99.90
8313;DHT22;4194;43.408;24.626;2024-03-08T09:58:45;4.80;99.90
8313;DHT22;4194;43.408;24.626;2024-03-08T10:01:37;6.00;99.90
8313;DHT22;4194;43.408;24.626;2024-03-08T10:04:04;6.00;99.90
8313;DHT22;4194;43.408;24.626;2024-03-08T10:06:30;5.00;99.90
8313;DHT22;4194;43.408;24.626;2024-03-08T10:08:57;5.40;99.90
8313;DHT22;4194;43.408;24.626;2024-03-08T10:11:24;5.50;99.90
8313;DHT22;4194;43.408;24.626;2024-03-08T10:13:50;5.40;99.90
8313;DHT22;4194;43.408;24.626;2024-03-08T10:16:16;5.30;99.90
8313;DHT22;4194;43.408;24.626;2024-03-08T10:18:45;5.20;99.90
8313;DHT22;4194;43.408;24.626;2024-03-08T10:21:12;5.30;99.90
8313;DHT22;4194;43.408;24.626;2024-03-08T10:23:39;5.20;99.90
8313;DHT22;4194;43.408;24.626;2024-03-08T10:26:15;5.40;99.90
8313;DHT22;4194;43.408;24.626;2024-03-08T10:28:46;5.40;99.90
8313;DHT22;4194;43.408;24.626;2024-03-08T10:31:18;5.40;99.90
8313;DHT22;4194;43.408;24.626;2024-03-08T10:33:47;6.40;99.90
8313;DHT22;4194;43.408;24.626;2024-03-08T10:36:14;6.30;99.90
8313;DHT22;4194;43.408;24.626;2024-03-08T10:38:41;6.20;99.90
8313;DHT22;4194;43.408;24.626;2024-03-08T10:41:09;5.10;99.90
8313;DHT22;4194;43.408;24.626;2024-03-08T10:49:32;6.10;99.90
8313;DHT22;4194;43.408;24.626;2024-03-08T10:52:05;5.60;99.90
8313;DHT22;4194;43.408;24.626;2024-03-08T10:54:34;6.20;99.90
8313;DHT22;4194;43.408;24.626;2024-03-08T10:57:05;6.40;99.90
8313;DHT22;4194;43.408;24.626;2024-03-08T10:59:32;5.20;99.90
8313;DHT22;4194;43.408;24.626;2024-03-08T11:01:59;5.00;99.90
8313;DHT22;4194;43.408;24.626;2024-03-08T11:04:25;5.20;99.90
8313;DHT22;4194;43.408;24.626;2024-03-08T11:06:52;6.00;99.90
8313;DHT22;4194;43.408;24.626;2024-03-08T11:09:35;6.00;99.90
8313;DHT22;4194;43.408;24.626;2024-03-08T11:12:27;6.40;99.90
8313;DHT22;4194;43.408;24.626;2024-03-08T11:15:15;5.60;99.90
8313;DHT22;4194;43.408;24.626;2024-03-08T11:17:50;5.50;99.90
8313;DHT22;4194;43.408;24.626;2024-03-08T11:20:20;5.20;99.90
8313;DHT22;4194;43.408;24.626;2024-03-08T11:23:16;5.70;99.90
8313;DHT22;4194;43.408;24.626;2024-03-08T11:25:48;5.70;99.90
8313;DHT22;4194;43.408;24.626;2024-03-08T11:28:23;5.40;99.90
8313;DHT22;4194;43.408;24.626;2024-03-08T11:33:31;6.10;99.90
8313;DHT22;4194;43.408;24.626;2024-03-08T11:38:42;5.70;99.90
8313;DHT22;4194;43.408;24.626;2024-03-08T11:41:09;5.80;99.90
8313;DHT22;4194;43.408;24.626;2024-03-08T11:43:40;5.40;99.90
8313;DHT22;4194;43.408;24.626;2024-03-08T11:46:14;6.40;99.90
8313;DHT22;4194;43.408;24.626;2024-03-08T11:48:40;5.90;99.90
8313;DHT22;4194;43.408;24.626;2024-03-08T11:51:11;5.60;99.90
8313;DHT22;4194;43.408;24.626;2024-03-08T11:53:37;6.20;99.90
8313;DHT22;4194;43.408;24.626;2024-03-08T11:56:13;6.10;99.90
8313;DHT22;4194;43.408;24.626;2024-03-08T11:58:40;7.10;99.90
8313;DHT22;4194;43.408;24.626;2024-03-08T12:01:07;5.50;99.90
8313;DHT22;4194;43.408;24.626;2024-03-08T12:03:40;4.90;99.90
8313;DHT22;4194;43.408;24.626;2024-03-08T12:06:11;5.60;99.90
8313;DHT22;4194;43.408;24.626;2024-03-08T12:08:39;5.60;99.90
8313;DHT22;4194;43.408;24.626;2024-03-08T12:11:05;5.20;99.90
8313;DHT22;4194;43.408;24.626;2024-03-08T12:13:32;7.90;99.90
8313;DHT22;4194;43.408;24.626;2024-03-08T12:16:02;6.20;99.90
8313;DHT22;4194;43.408;24.626;2024-03-08T12:18:38;4.40;99.90
8313;DHT22;4194;43.408;24.626;2024-03-08T12:21:09;5.50;99.90
8313;DHT22;4194;43.408;24.626;2024-03-08T12:23:36;6.00;99.90
8313;DHT22;4194;43.408;24.626;2024-03-08T12:26:16;4.90;99.90
8313;DHT22;4194;43.408;24.626;2024-03-08T12:28:43;6.00;99.90
8313;DHT22;4194;43.408;24.626;2024-03-08T12:31:14;5.40;99.90
8313;DHT22;4194;43.408;24.626;2024-03-08T12:33:55;5.80;99.90
8313;DHT22;4194;43.408;24.626;2024-03-08T12:36:24;5.00;99.90
8313;DHT22;4194;43.408;24.626;2024-03-08T12:38:51;4.70;99.90
8313;DHT22;4194;43.408;24.626;2024-03-08T12:41:20;5.50;99.90
8313;DHT22;4194;43.408;24.626;2024-03-08T12:43:47;5.00;99.90
8313;DHT22;4194;43.408;24.626;2024-03-08T12:46:20;5.60;99.90
8313;DHT22;4194;43.408;24.626;2024-03-08T12:48:46;6.20;99.90
8313;DHT22;4194;43.408;24.626;2024-03-08T12:51:16;5.40;99.90
8313;DHT22;4194;43.408;24.626;2024-03-08T12:53:44;6.30;99.90
8313;DHT22;4194;43.408;24.626;2024-03-08T12:56:10;5.40;99.90
8313;DHT22;4194;43.408;24.626;2024-03-08T12:58:36;5.80;99.90
8313;DHT22;4194;43.408;24.626;2024-03-08T13:01:03;6.20;99.90
8313;DHT22;4194;43.408;24.626;2024-03-08T13:03:33;6.00;99.90
8313;DHT22;4194;43.408;24.626;2024-03-08T13:06:02;4.90;99.90
8313;DHT22;4194;43.408;24.626;2024-03-08T13:13:22;5.60;99.90
8313;DHT22;4194;43.408;24.626;2024-03-08T13:15:48;5.60;99.90
8313;DHT22;4194;43.408;24.626;2024-03-08T13:18:14;5.20;99.90
8313;DHT22;4194;43.408;24.626;2024-03-08T13:20:41;6.40;99.90
8313;DHT22;4194;43.408;24.626;2024-03-08T13:23:09;5.60;99.90
8313;DHT22;4194;43.408;24.626;2024-03-08T13:25:35;5.60;99.90
8313;DHT22;4194;43.408;24.626;2024-03-08T13:28:04;5.60;99.90
8313;DHT22;4194;43.408;24.626;2024-03-08T13:30:31;5.70;99.90
8313;DHT22;4194;43.408;24.626;2024-03-08T13:32:57;5.30;99.90
8313;DHT22;4194;43.408;24.626;2024-03-08T13:35:22;5.70;99.90
8313;DHT22;4194;43.408;24.626;2024-03-08T13:37:52;6.50;99.90
8313;DHT22;4194;43.408;24.626;2024-03-08T13:40:18;5.60;99.90
8313;DHT22;4194;43.408;24.626;2024-03-08T13:42:45;5.00;99.90
8313;DHT22;4194;43.408;24.626;2024-03-08T13:45:12;5.60;99.90
8313;DHT22;4194;43.408;24.626;2024-03-08T13:47:41;5.80;99.90
8313;DHT22;4194;43.408;24.626;2024-03-08T13:50:08;6.00;99.90
8313;DHT22;4194;43.408;24.626;2024-03-08T13:52:37;6.40;99.90
8313;DHT22;4194;43.408;24.626;2024-03-08T13:55:04;5.70;99.90
8313;DHT22;4194;43.408;24.626;2024-03-08T13:57:31;6.00;99.90
8313;DHT22;4194;43.408;24.626;2024-03-08T13:59:57;5.60;99.90
8313;DHT22;4194;43.408;24.626;2024-03-08T14:02:23;4.70;99.90
8313;DHT22;4194;43.408;24.626;2024-03-08T14:04:53;5.60;99.90
8313;DHT22;4194;43.408;24.626;2024-03-08T14:07:20;5.30;99.90
8313;DHT22;4194;43.408;24.626;2024-03-08T14:09:46;5.20;99.90
8313;DHT22;4194;43.408;24.626;2024-03-08T14:14:40;6.20;99.90
8313;DHT22;4194;43.408;24.626;2024-03-08T14:17:07;5.60;99.90
8313;DHT22;4194;43.408;24.626;2024-03-08T14:19:35;5.30;99.90
8313;DHT22;4194;43.408;24.626;2024-03-08T14:22:01;5.60;99.90
8313;DHT22;4194;43.408;24.626;2024-03-08T14:24:30;6.10;99.90
8313;DHT22;4194;43.408;24.626;2024-03-08T14:26:56;5.60;99.90
8313;DHT22;4194;43.408;24.626;2024-03-08T14:29:25;5.60;99.90
8313;DHT22;4194;43.408;24.626;2024-03-08T14:31:55;5.60;99.90
8313;DHT22;4194;43.408;24.626;2024-03-08T14:34:24;5.60;99.90
8313;DHT22;4194;43.408;24.626;2024-03-08T14:36:52;5.20;99.90
8313;DHT22;4194;43.408;24.626;2024-03-08T14:39:19;5.60;99.90
8313;DHT22;4194;43.408;24.626;2024-03-08T14:41:47;5.60;99.90
8313;DHT22;4194;43.408;24.626;2024-03-08T14:44:13;5.10;99.90
8313;DHT22;4194;43.408;24.626;2024-03-08T14:46:40;5.10;99.90
8313;DHT22;4194;43.408;24.626;2024-03-08T14:49:07;5.20;99.90
8313;DHT22;4194;43.408;24.626;2024-03-08T14:51:33;5.60;99.90
8313;DHT22;4194;43.408;24.626;2024-03-08T14:54:00;5.60;99.90
8313;DHT22;4194;43.408;24.626;2024-03-08T14:56:26;5.60;99.90
8313;DHT22;4194;43.408;24.626;2024-03-08T14:58:52;5.90;99.90
8313;DHT22;4194;43.408;24.626;2024-03-08T15:01:19;4.90;99.90
8313;DHT22;4194;43.408;24.626;2024-03-08T15:03:50;5.50;99.90
8313;DHT22;4194;43.408;24.626;2024-03-08T15:06:16;5.50;99.90
8313;DHT22;4194;43.408;24.626;2024-03-08T15:08:45;5.50;99.90
8313;DHT22;4194;43.408;24.626;2024-03-08T15:11:11;4.70;99.90
8313;DHT22;4194;43.408;24.626;2024-03-08T15:13:37;6.30;99.90
8313;DHT22;4194;43.408;24.626;2024-03-08T15:16:10;5.10;99.90
8313;DHT22;4194;43.408;24.626;2024-03-08T15:18:42;5.40;99.90
8313;DHT22;4194;43.408;24.626;2024-03-08T15:21:12;5.80;99.90
8313;DHT22;4194;43.408;24.626;2024-03-08T15:23:43;6.20;99.90
8313;DHT22;4194;43.408;24.626;2024-03-08T15:26:15;5.70;99.90
8313;DHT22;4194;43.408;24.626;2024-03-08T15:28:42;5.40;99.90
8313;DHT22;4194;43.408;24.626;2024-03-08T15:31:09;5.40;99.90
8313;DHT22;4194;43.408;24.626;2024-03-08T15:33:38;5.40;99.90
8313;DHT22;4194;43.408;24.626;2024-03-08T15:36:16;5.30;99.90
8313;DHT22;4194;43.408;24.626;2024-03-08T15:38:43;5.30;99.90
8313;DHT22;4194;43.408;24.626;2024-03-08T15:41:16;5.30;99.90
8313;DHT22;4194;43.408;24.626;2024-03-08T15:43:43;5.30;99.90
8313;DHT22;4194;43.408;24.626;2024-03-08T15:46:10;6.00;99.90
8313;DHT22;4194;43.408;24.626;2024-03-08T15:48:37;5.20;99.90
8313;DHT22;4194;43.408;24.626;2024-03-08T15:51:04;5.50;99.90
8313;DHT22;4194;43.408;24.626;2024-03-08T15:53:32;5.40;99.90
8313;DHT22;4194;43.408;24.626;2024-03-08T15:55:58;5.30;99.90
8313;DHT22;4194;43.408;24.626;2024-03-08T15:58:24;6.00;99.90
8313;DHT22;4194;43.408;24.626;2024-03-08T16:00:50;5.30;99.90
8313;DHT22;4194;43.408;24.626;2024-03-08T16:03:19;5.30;99.90
8313;DHT22;4194;43.408;24.626;2024-03-08T16:05:46;5.40;99.90
8313;DHT22;4194;43.408;24.626;2024-03-08T16:08:16;4.80;99.90
8313;DHT22;4194;43.408;24.626;2024-03-08T16:10:48;5.30;99.90
8313;DHT22;4194;43.408;24.626;2024-03-08T16:13:26;5.30;99.90
8313;DHT22;4194;43.408;24.626;2024-03-08T16:15:56;5.10;99.90
8313;DHT22;4194;43.408;24.626;2024-03-08T16:18:22;5.70;99.90
8313;DHT22;4194;43.408;24.626;2024-03-08T16:20:50;5.00;99.90
8313;DHT22;4194;43.408;24.626;2024-03-08T16:23:16;4.80;99.90
8313;DHT22;4194;43.408;24.626;2024-03-08T16:25:45;5.30;99.90
8313;DHT22;4194;43.408;24.626;2024-03-08T16:28:12;5.80;99.90
8313;DHT22;4194;43.408;24.626;2024-03-08T16:30:38;5.60;99.90
8313;DHT22;4194;43.408;24.626;2024-03-08T16:33:07;4.80;99.90
8313;DHT22;4194;43.408;24.626;2024-03-08T16:35:32;5.30;99.90